sensor_id;sensor_type;location;lat;lon;timestamp;P1;durP1;ratioP1;P2;durP2;ratioP2
69485;SDS011;56677;51.710;5.366;2023-06-26T00:02:19;5.30;;;3.40;;
69485;SDS011;56677;51.710;5.366;2023-06-26T00:04:44;5.30;;;3.17;;
69485;SDS011;56677;51.710;5.366;2023-06-26T00:07:09;5.33;;;3.60;;
69485;SDS011;56677;51.710;5.366;2023-06-26T00:09:34;5.10;;;3.50;;
69485;SDS011;56677;51.710;5.366;2023-06-26T00:11:59;5.83;;;3.30;;
69485;SDS011;56677;51.710;5.366;2023-06-26T00:14:24;5.38;;;3.53;;
69485;SDS011;56677;51.710;5.366;2023-06-26T00:16:50;6.07;;;3.40;;
69485;SDS011;56677;51.710;5.366;2023-06-26T00:19:15;5.78;;;3.63;;
69485;SDS011;56677;51.710;5.366;2023-06-26T00:21:40;6.07;;;3.83;;
69485;SDS011;56677;51.710;5.366;2023-06-26T00:24:05;6.07;;;3.60;;
69485;SDS011;56677;51.710;5.366;2023-06-26T00:26:31;4.97;;;2.93;;
69485;SDS011;56677;51.710;5.366;2023-06-26T00:28:56;5.47;;;3.17;;
69485;SDS011;56677;51.710;5.366;2023-06-26T00:31:21;5.53;;;3.40;;
69485;SDS011;56677;51.710;5.366;2023-06-26T00:33:46;5.18;;;3.40;;
69485;SDS011;56677;51.710;5.366;2023-06-26T00:36:11;5.00;;;3.33;;
69485;SDS011;56677;51.710;5.366;2023-06-26T00:38:36;5.40;;;3.27;;
69485;SDS011;56677;51.710;5.366;2023-06-26T00:41:01;5.30;;;3.40;;
69485;SDS011;56677;51.710;5.366;2023-06-26T00:43:26;5.50;;;3.38;;
69485;SDS011;56677;51.710;5.366;2023-06-26T00:45:52;5.60;;;3.47;;
69485;SDS011;56677;51.710;5.366;2023-06-26T00:48:17;5.00;;;3.53;;
69485;SDS011;56677;51.710;5.366;2023-06-26T00:50:43;5.28;;;3.40;;
69485;SDS011;56677;51.710;5.366;2023-06-26T00:53:11;6.13;;;3.70;;
69485;SDS011;56677;51.710;5.366;2023-06-26T00:55:36;5.22;;;3.25;;
69485;SDS011;56677;51.710;5.366;2023-06-26T00:58:02;4.87;;;3.27;;
69485;SDS011;56677;51.710;5.366;2023-06-26T01:00:27;5.60;;;3.47;;
69485;SDS011;56677;51.710;5.366;2023-06-26T01:02:52;5.07;;;3.23;;
69485;SDS011;56677;51.710;5.366;2023-06-26T01:05:17;5.07;;;3.15;;
69485;SDS011;56677;51.710;5.366;2023-06-26T01:07:43;6.27;;;3.40;;
69485;SDS011;56677;51.710;5.366;2023-06-26T01:10:08;5.23;;;3.20;;
69485;SDS011;56677;51.710;5.366;2023-06-26T01:12:33;5.37;;;3.23;;
69485;SDS011;56677;51.710;5.366;2023-06-26T01:14:59;5.25;;;3.40;;
69485;SDS011;56677;51.710;5.366;2023-06-26T01:17:24;5.28;;;3.22;;
69485;SDS011;56677;51.710;5.366;2023-06-26T01:19:49;5.33;;;3.57;;
69485;SDS011;56677;51.710;5.366;2023-06-26T01:27:42;5.50;;;3.47;;
69485;SDS011;56677;51.710;5.366;2023-06-26T01:30:08;5.10;;;3.47;;
69485;SDS011;56677;51.710;5.366;2023-06-26T01:32:33;5.82;;;3.65;;
69485;SDS011;56677;51.710;5.366;2023-06-26T01:34:59;5.87;;;3.37;;
69485;SDS011;56677;51.710;5.366;2023-06-26T01:37:24;5.27;;;3.23;;
69485;SDS011;56677;51.710;5.366;2023-06-26T01:39:49;5.00;;;3.17;;
69485;SDS011;56677;51.710;5.366;2023-06-26T01:42:14;5.53;;;3.55;;
69485;SDS011;56677;51.710;5.366;2023-06-26T01:44:42;5.43;;;3.27;;
69485;SDS011;56677;51.710;5.366;2023-06-26T01:47:09;5.60;;;3.42;;
69485;SDS011;56677;51.710;5.366;2023-06-26T01:49:44;5.53;;;3.23;;
69485;SDS011;56677;51.710;5.366;2023-06-26T01:54:37;5.60;;;3.00;;
69485;SDS011;56677;51.710;5.366;2023-06-26T01:57:04;5.32;;;3.28;;
69485;SDS011;56677;51.710;5.366;2023-06-26T01:59:29;5.27;;;3.10;;
69485;SDS011;56677;51.710;5.366;2023-06-26T02:01:56;6.80;;;3.47;;
69485;SDS011;56677;51.710;5.366;2023-06-26T02:04:21;5.25;;;3.10;;
69485;SDS011;56677;51.710;5.366;2023-06-26T02:06:46;5.68;;;3.17;;
69485;SDS011;56677;51.710;5.366;2023-06-26T02:09:12;4.75;;;2.92;;
69485;SDS011;56677;51.710;5.366;2023-06-26T02:11:37;5.07;;;3.13;;
69485;SDS011;56677;51.710;5.366;2023-06-26T02:14:02;4.97;;;3.03;;
69485;SDS011;56677;51.710;5.366;2023-06-26T02:16:27;6.70;;;3.00;;
69485;SDS011;56677;51.710;5.366;2023-06-26T02:18:52;5.27;;;3.13;;
69485;SDS011;56677;51.710;5.366;2023-06-26T02:21:17;5.53;;;3.30;;
69485;SDS011;56677;51.710;5.366;2023-06-26T02:23:42;4.83;;;2.83;;
69485;SDS011;56677;51.710;5.366;2023-06-26T02:26:08;4.93;;;3.20;;
69485;SDS011;56677;51.710;5.366;2023-06-26T02:28:33;5.05;;;2.80;;
69485;SDS011;56677;51.710;5.366;2023-06-26T02:30:58;4.93;;;2.92;;
69485;SDS011;56677;51.710;5.366;2023-06-26T02:33:23;6.43;;;3.28;;
69485;SDS011;56677;51.710;5.366;2023-06-26T02:35:48;5.20;;;2.83;;
69485;SDS011;56677;51.710;5.366;2023-06-26T02:38:13;4.70;;;2.93;;
69485;SDS011;56677;51.710;5.366;2023-06-26T02:40:38;5.70;;;3.17;;
69485;SDS011;56677;51.710;5.366;2023-06-26T02:43:04;5.50;;;3.17;;
69485;SDS011;56677;51.710;5.366;2023-06-26T02:45:29;5.43;;;2.65;;
69485;SDS011;56677;51.710;5.366;2023-06-26T02:47:54;5.28;;;2.80;;
69485;SDS011;56677;51.710;5.366;2023-06-26T02:50:19;4.88;;;2.45;;
69485;SDS011;56677;51.710;5.366;2023-06-26T02:52:44;5.80;;;3.10;;
69485;SDS011;56677;51.710;5.366;2023-06-26T02:55:09;6.17;;;3.00;;
69485;SDS011;56677;51.710;5.366;2023-06-26T02:57:34;5.50;;;3.10;;
69485;SDS011;56677;51.710;5.366;2023-06-26T02:59:59;4.88;;;2.90;;
69485;SDS011;56677;51.710;5.366;2023-06-26T03:02:24;7.43;;;3.20;;
69485;SDS011;56677;51.710;5.366;2023-06-26T03:04:50;5.78;;;2.90;;
69485;SDS011;56677;51.710;5.366;2023-06-26T03:07:15;5.47;;;2.93;;
69485;SDS011;56677;51.710;5.366;2023-06-26T03:09:40;4.93;;;2.60;;
69485;SDS011;56677;51.710;5.366;2023-06-26T03:12:05;5.57;;;2.67;;
69485;SDS011;56677;51.710;5.366;2023-06-26T03:14:30;5.90;;;2.90;;
69485;SDS011;56677;51.710;5.366;2023-06-26T03:16:56;5.25;;;2.90;;
69485;SDS011;56677;51.710;5.366;2023-06-26T03:19:21;5.30;;;2.90;;
69485;SDS011;56677;51.710;5.366;2023-06-26T03:21:46;5.80;;;2.65;;
69485;SDS011;56677;51.710;5.366;2023-06-26T03:24:11;5.60;;;2.85;;
69485;SDS011;56677;51.710;5.366;2023-06-26T03:26:36;6.20;;;2.72;;
69485;SDS011;56677;51.710;5.366;2023-06-26T03:29:01;4.50;;;2.70;;
69485;SDS011;56677;51.710;5.366;2023-06-26T03:31:26;4.97;;;2.90;;
69485;SDS011;56677;51.710;5.366;2023-06-26T03:33:51;4.80;;;2.72;;
69485;SDS011;56677;51.710;5.366;2023-06-26T03:36:17;5.47;;;2.83;;
69485;SDS011;56677;51.710;5.366;2023-06-26T03:38:42;5.93;;;2.85;;
69485;SDS011;56677;51.710;5.366;2023-06-26T03:41:07;4.53;;;2.30;;
69485;SDS011;56677;51.710;5.366;2023-06-26T03:43:32;5.23;;;3.00;;
69485;SDS011;56677;51.710;5.366;2023-06-26T03:45:57;4.40;;;2.47;;
69485;SDS011;56677;51.710;5.366;2023-06-26T03:48:22;5.47;;;2.90;;
69485;SDS011;56677;51.710;5.366;2023-06-26T03:50:47;5.90;;;3.15;;
69485;SDS011;56677;51.710;5.366;2023-06-26T03:53:13;5.67;;;2.57;;
69485;SDS011;56677;51.710;5.366;2023-06-26T03:55:38;6.23;;;2.80;;
69485;SDS011;56677;51.710;5.366;2023-06-26T03:58:03;5.30;;;2.97;;
69485;SDS011;56677;51.710;5.366;2023-06-26T04:00:28;5.83;;;2.70;;
69485;SDS011;56677;51.710;5.366;2023-06-26T04:02:54;4.40;;;2.30;;
69485;SDS011;56677;51.710;5.366;2023-06-26T04:05:19;5.40;;;2.45;;
69485;SDS011;56677;51.710;5.366;2023-06-26T04:07:44;6.32;;;2.83;;
69485;SDS011;56677;51.710;5.366;2023-06-26T04:10:09;5.05;;;2.60;;
69485;SDS011;56677;51.710;5.366;2023-06-26T04:12:35;5.63;;;2.78;;
69485;SDS011;56677;51.710;5.366;2023-06-26T04:15:00;6.32;;;2.80;;
69485;SDS011;56677;51.710;5.366;2023-06-26T04:17:25;6.17;;;2.83;;
69485;SDS011;56677;51.710;5.366;2023-06-26T04:19:50;6.57;;;2.72;;
69485;SDS011;56677;51.710;5.366;2023-06-26T04:22:15;5.70;;;2.95;;
69485;SDS011;56677;51.710;5.366;2023-06-26T04:24:40;5.43;;;2.73;;
69485;SDS011;56677;51.710;5.366;2023-06-26T04:27:06;6.27;;;2.70;;
69485;SDS011;56677;51.710;5.366;2023-06-26T04:29:31;5.80;;;3.00;;
69485;SDS011;56677;51.710;5.366;2023-06-26T04:31:56;6.43;;;2.93;;
69485;SDS011;56677;51.710;5.366;2023-06-26T04:34:21;5.85;;;2.60;;
69485;SDS011;56677;51.710;5.366;2023-06-26T04:36:46;5.05;;;2.67;;
69485;SDS011;56677;51.710;5.366;2023-06-26T04:39:11;5.95;;;2.92;;
69485;SDS011;56677;51.710;5.366;2023-06-26T04:41:36;5.57;;;2.47;;
69485;SDS011;56677;51.710;5.366;2023-06-26T04:44:01;5.53;;;3.00;;
69485;SDS011;56677;51.710;5.366;2023-06-26T04:46:27;6.00;;;3.00;;
69485;SDS011;56677;51.710;5.366;2023-06-26T04:48:52;4.60;;;2.55;;
69485;SDS011;56677;51.710;5.366;2023-06-26T04:51:17;5.43;;;2.60;;
69485;SDS011;56677;51.710;5.366;2023-06-26T04:53:42;5.22;;;2.50;;
69485;SDS011;56677;51.710;5.366;2023-06-26T04:56:07;4.10;;;2.35;;
69485;SDS011;56677;51.710;5.366;2023-06-26T04:58:32;7.60;;;2.80;;
69485;SDS011;56677;51.710;5.366;2023-06-26T05:00:57;5.47;;;2.53;;
69485;SDS011;56677;51.710;5.366;2023-06-26T05:03:22;6.20;;;2.60;;
69485;SDS011;56677;51.710;5.366;2023-06-26T05:05:48;6.38;;;2.78;;
69485;SDS011;56677;51.710;5.366;2023-06-26T05:08:13;6.50;;;2.83;;
69485;SDS011;56677;51.710;5.366;2023-06-26T05:10:40;6.10;;;2.78;;
69485;SDS011;56677;51.710;5.366;2023-06-26T05:13:05;5.27;;;2.53;;
69485;SDS011;56677;51.710;5.366;2023-06-26T05:15:31;6.35;;;2.50;;
69485;SDS011;56677;51.710;5.366;2023-06-26T05:17:56;5.93;;;2.50;;
69485;SDS011;56677;51.710;5.366;2023-06-26T05:20:21;7.10;;;2.73;;
69485;SDS011;56677;51.710;5.366;2023-06-26T05:22:46;6.45;;;2.90;;
69485;SDS011;56677;51.710;5.366;2023-06-26T05:25:11;5.53;;;2.30;;
69485;SDS011;56677;51.710;5.366;2023-06-26T05:27:37;6.45;;;2.67;;
69485;SDS011;56677;51.710;5.366;2023-06-26T05:30:03;6.20;;;2.97;;
69485;SDS011;56677;51.710;5.366;2023-06-26T05:32:28;7.63;;;2.57;;
69485;SDS011;56677;51.710;5.366;2023-06-26T05:34:55;8.35;;;2.60;;
69485;SDS011;56677;51.710;5.366;2023-06-26T05:37:21;5.70;;;2.73;;
69485;SDS011;56677;51.710;5.366;2023-06-26T05:39:46;7.10;;;2.78;;
69485;SDS011;56677;51.710;5.366;2023-06-26T05:42:12;6.83;;;3.00;;
69485;SDS011;56677;51.710;5.366;2023-06-26T05:44:37;6.40;;;2.97;;
69485;SDS011;56677;51.710;5.366;2023-06-26T05:47:02;4.88;;;2.53;;
69485;SDS011;56677;51.710;5.366;2023-06-26T05:49:27;7.90;;;2.70;;
69485;SDS011;56677;51.710;5.366;2023-06-26T05:51:53;5.70;;;2.60;;
69485;SDS011;56677;51.710;5.366;2023-06-26T05:54:18;5.40;;;2.70;;
69485;SDS011;56677;51.710;5.366;2023-06-26T05:56:43;5.17;;;2.60;;
69485;SDS011;56677;51.710;5.366;2023-06-26T05:59:08;5.47;;;2.50;;
69485;SDS011;56677;51.710;5.366;2023-06-26T06:01:35;5.38;;;2.58;;
69485;SDS011;56677;51.710;5.366;2023-06-26T06:04:00;5.57;;;2.65;;
69485;SDS011;56677;51.710;5.366;2023-06-26T06:06:25;5.78;;;2.53;;
69485;SDS011;56677;51.710;5.366;2023-06-26T06:08:50;5.68;;;2.53;;
69485;SDS011;56677;51.710;5.366;2023-06-26T06:11:15;5.43;;;2.50;;
69485;SDS011;56677;51.710;5.366;2023-06-26T06:13:40;5.63;;;2.30;;
69485;SDS011;56677;51.710;5.366;2023-06-26T06:16:06;6.22;;;2.85;;
69485;SDS011;56677;51.710;5.366;2023-06-26T06:18:31;6.37;;;2.60;;
69485;SDS011;56677;51.710;5.366;2023-06-26T06:20:56;6.10;;;2.50;;
69485;SDS011;56677;51.710;5.366;2023-06-26T06:23:21;6.63;;;2.40;;
69485;SDS011;56677;51.710;5.366;2023-06-26T06:25:46;5.75;;;2.33;;
69485;SDS011;56677;51.710;5.366;2023-06-26T06:28:11;6.28;;;2.35;;
69485;SDS011;56677;51.710;5.366;2023-06-26T06:30:36;5.78;;;2.92;;
69485;SDS011;56677;51.710;5.366;2023-06-26T06:33:01;4.90;;;2.53;;
69485;SDS011;56677;51.710;5.366;2023-06-26T06:35:27;5.80;;;2.00;;
69485;SDS011;56677;51.710;5.366;2023-06-26T06:37:52;6.05;;;2.30;;
69485;SDS011;56677;51.710;5.366;2023-06-26T06:40:17;5.63;;;2.22;;
69485;SDS011;56677;51.710;5.366;2023-06-26T06:42:42;5.18;;;2.10;;
69485;SDS011;56677;51.710;5.366;2023-06-26T06:45:07;5.27;;;2.60;;
69485;SDS011;56677;51.710;5.366;2023-06-26T06:47:33;5.00;;;2.57;;
69485;SDS011;56677;51.710;5.366;2023-06-26T06:49:59;5.10;;;2.10;;
69485;SDS011;56677;51.710;5.366;2023-06-26T06:52:25;4.45;;;2.10;;
69485;SDS011;56677;51.710;5.366;2023-06-26T06:57:18;5.03;;;2.33;;
69485;SDS011;56677;51.710;5.366;2023-06-26T06:59:43;5.67;;;2.60;;
69485;SDS011;56677;51.710;5.366;2023-06-26T07:02:08;5.20;;;2.63;;
69485;SDS011;56677;51.710;5.366;2023-06-26T07:04:33;6.55;;;2.78;;
69485;SDS011;56677;51.710;5.366;2023-06-26T07:06:58;4.80;;;2.25;;
69485;SDS011;56677;51.710;5.366;2023-06-26T07:09:23;4.75;;;2.20;;
69485;SDS011;56677;51.710;5.366;2023-06-26T07:11:49;5.65;;;2.00;;
69485;SDS011;56677;51.710;5.366;2023-06-26T07:14:14;5.25;;;2.03;;
69485;SDS011;56677;51.710;5.366;2023-06-26T07:16:39;4.60;;;2.30;;
69485;SDS011;56677;51.710;5.366;2023-06-26T07:19:04;5.70;;;2.10;;
69485;SDS011;56677;51.710;5.366;2023-06-26T07:21:29;4.55;;;2.22;;
69485;SDS011;56677;51.710;5.366;2023-06-26T07:23:54;5.10;;;2.33;;
69485;SDS011;56677;51.710;5.366;2023-06-26T07:26:19;6.63;;;2.30;;
69485;SDS011;56677;51.710;5.366;2023-06-26T07:28:45;5.78;;;2.35;;
69485;SDS011;56677;51.710;5.366;2023-06-26T07:31:10;5.63;;;2.30;;
69485;SDS011;56677;51.710;5.366;2023-06-26T07:33:35;5.65;;;2.60;;
69485;SDS011;56677;51.710;5.366;2023-06-26T07:36:00;5.20;;;2.30;;
69485;SDS011;56677;51.710;5.366;2023-06-26T07:38:25;4.43;;;2.22;;
69485;SDS011;56677;51.710;5.366;2023-06-26T07:40:50;4.50;;;2.20;;
69485;SDS011;56677;51.710;5.366;2023-06-26T07:43:15;5.67;;;2.30;;
69485;SDS011;56677;51.710;5.366;2023-06-26T07:45:40;4.57;;;2.60;;
69485;SDS011;56677;51.710;5.366;2023-06-26T07:48:06;4.80;;;2.20;;
69485;SDS011;56677;51.710;5.366;2023-06-26T07:50:31;3.58;;;1.80;;
69485;SDS011;56677;51.710;5.366;2023-06-26T07:52:56;4.80;;;2.30;;
69485;SDS011;56677;51.710;5.366;2023-06-26T07:55:21;5.57;;;2.40;;
69485;SDS011;56677;51.710;5.366;2023-06-26T07:57:46;4.17;;;1.80;;
69485;SDS011;56677;51.710;5.366;2023-06-26T08:00:11;5.00;;;2.10;;
69485;SDS011;56677;51.710;5.366;2023-06-26T08:02:37;4.33;;;2.37;;
69485;SDS011;56677;51.710;5.366;2023-06-26T08:05:02;4.40;;;2.30;;
69485;SDS011;56677;51.710;5.366;2023-06-26T08:07:27;4.85;;;2.28;;
69485;SDS011;56677;51.710;5.366;2023-06-26T08:09:52;5.07;;;2.40;;
69485;SDS011;56677;51.710;5.366;2023-06-26T08:12:17;3.93;;;2.00;;
69485;SDS011;56677;51.710;5.366;2023-06-26T08:14:42;4.15;;;2.30;;
69485;SDS011;56677;51.710;5.366;2023-06-26T08:17:07;5.13;;;2.10;;
69485;SDS011;56677;51.710;5.366;2023-06-26T08:19:32;4.80;;;2.30;;
69485;SDS011;56677;51.710;5.366;2023-06-26T08:21:58;4.00;;;2.38;;
69485;SDS011;56677;51.710;5.366;2023-06-26T08:24:23;4.15;;;2.28;;
69485;SDS011;56677;51.710;5.366;2023-06-26T08:26:48;4.67;;;2.13;;
69485;SDS011;56677;51.710;5.366;2023-06-26T08:29:13;3.75;;;2.33;;
69485;SDS011;56677;51.710;5.366;2023-06-26T08:31:39;5.07;;;2.47;;
69485;SDS011;56677;51.710;5.366;2023-06-26T08:34:05;4.38;;;1.80;;
69485;SDS011;56677;51.710;5.366;2023-06-26T08:36:30;3.70;;;1.97;;
69485;SDS011;56677;51.710;5.366;2023-06-26T08:38:55;4.20;;;2.13;;
69485;SDS011;56677;51.710;5.366;2023-06-26T08:41:21;3.67;;;1.90;;
69485;SDS011;56677;51.710;5.366;2023-06-26T08:43:46;4.10;;;2.17;;
69485;SDS011;56677;51.710;5.366;2023-06-26T08:46:11;4.82;;;1.88;;
69485;SDS011;56677;51.710;5.366;2023-06-26T08:48:36;4.07;;;2.00;;
69485;SDS011;56677;51.710;5.366;2023-06-26T08:51:05;4.43;;;2.10;;
69485;SDS011;56677;51.710;5.366;2023-06-26T08:55:58;4.32;;;2.30;;
69485;SDS011;56677;51.710;5.366;2023-06-26T08:58:24;4.33;;;2.10;;
69485;SDS011;56677;51.710;5.366;2023-06-26T09:00:49;4.57;;;1.88;;
69485;SDS011;56677;51.710;5.366;2023-06-26T09:03:15;3.13;;;1.70;;
69485;SDS011;56677;51.710;5.366;2023-06-26T09:05:40;3.47;;;1.80;;
69485;SDS011;56677;51.710;5.366;2023-06-26T09:08:05;4.93;;;1.90;;
69485;SDS011;56677;51.710;5.366;2023-06-26T09:10:30;4.40;;;1.80;;
69485;SDS011;56677;51.710;5.366;2023-06-26T09:12:56;4.70;;;1.73;;
69485;SDS011;56677;51.710;5.366;2023-06-26T09:15:21;4.97;;;1.85;;
69485;SDS011;56677;51.710;5.366;2023-06-26T09:17:47;3.77;;;1.83;;
69485;SDS011;56677;51.710;5.366;2023-06-26T09:20:12;3.55;;;1.70;;
69485;SDS011;56677;51.710;5.366;2023-06-26T09:22:39;2.97;;;1.63;;
69485;SDS011;56677;51.710;5.366;2023-06-26T09:25:05;4.00;;;1.60;;
69485;SDS011;56677;51.710;5.366;2023-06-26T09:27:30;3.80;;;1.97;;
69485;SDS011;56677;51.710;5.366;2023-06-26T09:29:56;4.50;;;2.13;;
69485;SDS011;56677;51.710;5.366;2023-06-26T09:32:23;3.10;;;1.80;;
69485;SDS011;56677;51.710;5.366;2023-06-26T09:34:48;3.72;;;1.75;;
69485;SDS011;56677;51.710;5.366;2023-06-26T09:37:17;5.35;;;2.20;;
69485;SDS011;56677;51.710;5.366;2023-06-26T09:39:42;4.23;;;1.73;;
69485;SDS011;56677;51.710;5.366;2023-06-26T09:42:07;4.57;;;1.95;;
69485;SDS011;56677;51.710;5.366;2023-06-26T09:44:32;4.40;;;1.60;;
69485;SDS011;56677;51.710;5.366;2023-06-26T09:46:58;4.47;;;2.03;;
69485;SDS011;56677;51.710;5.366;2023-06-26T09:49:23;3.87;;;1.93;;
69485;SDS011;56677;51.710;5.366;2023-06-26T09:51:48;3.40;;;1.97;;
69485;SDS011;56677;51.710;5.366;2023-06-26T09:54:15;3.67;;;1.80;;
69485;SDS011;56677;51.710;5.366;2023-06-26T09:56:41;9.45;;;1.52;;
69485;SDS011;56677;51.710;5.366;2023-06-26T09:59:06;7.13;;;1.50;;
69485;SDS011;56677;51.710;5.366;2023-06-26T10:01:31;7.20;;;1.50;;
69485;SDS011;56677;51.710;5.366;2023-06-26T10:03:57;4.87;;;1.10;;
69485;SDS011;56677;51.710;5.366;2023-06-26T10:06:24;3.37;;;1.53;;
69485;SDS011;56677;51.710;5.366;2023-06-26T10:08:51;3.47;;;1.30;;
69485;SDS011;56677;51.710;5.366;2023-06-26T10:11:19;5.97;;;1.87;;
69485;SDS011;56677;51.710;5.366;2023-06-26T10:13:46;4.80;;;1.60;;
69485;SDS011;56677;51.710;5.366;2023-06-26T10:16:12;3.63;;;1.50;;
69485;SDS011;56677;51.710;5.366;2023-06-26T10:18:38;5.03;;;1.50;;
69485;SDS011;56677;51.710;5.366;2023-06-26T10:21:03;3.17;;;1.10;;
69485;SDS011;56677;51.710;5.366;2023-06-26T10:23:29;4.63;;;1.25;;
69485;SDS011;56677;51.710;5.366;2023-06-26T10:25:55;2.97;;;1.25;;
69485;SDS011;56677;51.710;5.366;2023-06-26T10:28:23;4.37;;;1.37;;
69485;SDS011;56677;51.710;5.366;2023-06-26T10:30:48;4.13;;;1.35;;
69485;SDS011;56677;51.710;5.366;2023-06-26T10:33:15;3.80;;;1.30;;
69485;SDS011;56677;51.710;5.366;2023-06-26T10:35:44;5.57;;;1.30;;
69485;SDS011;56677;51.710;5.366;2023-06-26T10:38:09;2.85;;;1.17;;
69485;SDS011;56677;51.710;5.366;2023-06-26T10:40:47;2.77;;;1.37;;
69485;SDS011;56677;51.710;5.366;2023-06-26T10:43:13;4.13;;;1.40;;
69485;SDS011;56677;51.710;5.366;2023-06-26T10:45:48;4.72;;;1.33;;
69485;SDS011;56677;51.710;5.366;2023-06-26T10:48:16;4.25;;;1.40;;
69485;SDS011;56677;51.710;5.366;2023-06-26T10:50:41;5.40;;;1.60;;
69485;SDS011;56677;51.710;5.366;2023-06-26T10:55:35;5.03;;;1.52;;
69485;SDS011;56677;51.710;5.366;2023-06-26T10:58:00;2.75;;;1.08;;
69485;SDS011;56677;51.710;5.366;2023-06-26T11:00:26;3.60;;;1.47;;
69485;SDS011;56677;51.710;5.366;2023-06-26T11:02:51;3.23;;;1.30;;
69485;SDS011;56677;51.710;5.366;2023-06-26T11:05:26;5.20;;;1.43;;
69485;SDS011;56677;51.710;5.366;2023-06-26T11:08:10;5.80;;;1.67;;
69485;SDS011;56677;51.710;5.366;2023-06-26T11:10:53;3.58;;;1.45;;
69485;SDS011;56677;51.710;5.366;2023-06-26T11:13:19;6.80;;;1.60;;
69485;SDS011;56677;51.710;5.366;2023-06-26T11:15:45;5.33;;;1.20;;
69485;SDS011;56677;51.710;5.366;2023-06-26T11:18:10;4.80;;;1.37;;
69485;SDS011;56677;51.710;5.366;2023-06-26T11:20:35;3.87;;;0.93;;
69485;SDS011;56677;51.710;5.366;2023-06-26T11:23:00;3.88;;;1.23;;
69485;SDS011;56677;51.710;5.366;2023-06-26T11:25:26;5.57;;;1.10;;
69485;SDS011;56677;51.710;5.366;2023-06-26T11:27:53;5.37;;;1.27;;
69485;SDS011;56677;51.710;5.366;2023-06-26T11:30:24;3.53;;;1.20;;
69485;SDS011;56677;51.710;5.366;2023-06-26T11:32:50;3.55;;;1.15;;
69485;SDS011;56677;51.710;5.366;2023-06-26T11:35:33;3.73;;;1.50;;
69485;SDS011;56677;51.710;5.366;2023-06-26T11:38:02;11.18;;;1.52;;
69485;SDS011;56677;51.710;5.366;2023-06-26T11:40:28;5.27;;;1.60;;
69485;SDS011;56677;51.710;5.366;2023-06-26T11:42:53;5.00;;;1.90;;
69485;SDS011;56677;51.710;5.366;2023-06-26T11:45:19;5.00;;;1.43;;
69485;SDS011;56677;51.710;5.366;2023-06-26T11:47:44;3.55;;;1.38;;
69485;SDS011;56677;51.710;5.366;2023-06-26T11:50:14;3.75;;;1.65;;
69485;SDS011;56677;51.710;5.366;2023-06-26T11:52:41;3.35;;;1.60;;
69485;SDS011;56677;51.710;5.366;2023-06-26T11:55:06;4.57;;;1.40;;
69485;SDS011;56677;51.710;5.366;2023-06-26T11:57:31;4.50;;;1.40;;
69485;SDS011;56677;51.710;5.366;2023-06-26T11:59:56;5.30;;;1.23;;
69485;SDS011;56677;51.710;5.366;2023-06-26T12:02:21;5.13;;;1.50;;
69485;SDS011;56677;51.710;5.366;2023-06-26T12:04:46;2.75;;;1.35;;
69485;SDS011;56677;51.710;5.366;2023-06-26T12:07:12;4.67;;;1.47;;
69485;SDS011;56677;51.710;5.366;2023-06-26T12:09:38;4.73;;;1.60;;
69485;SDS011;56677;51.710;5.366;2023-06-26T12:12:03;4.03;;;1.50;;
69485;SDS011;56677;51.710;5.366;2023-06-26T12:14:29;4.03;;;1.47;;
69485;SDS011;56677;51.710;5.366;2023-06-26T12:16:54;8.48;;;2.03;;
69485;SDS011;56677;51.710;5.366;2023-06-26T12:19:26;5.25;;;2.00;;
69485;SDS011;56677;51.710;5.366;2023-06-26T12:21:51;7.87;;;2.27;;
69485;SDS011;56677;51.710;5.366;2023-06-26T12:24:17;6.13;;;2.20;;
69485;SDS011;56677;51.710;5.366;2023-06-26T12:26:45;5.80;;;1.60;;
69485;SDS011;56677;51.710;5.366;2023-06-26T12:29:12;3.70;;;1.77;;
69485;SDS011;56677;51.710;5.366;2023-06-26T12:31:40;5.07;;;1.77;;
69485;SDS011;56677;51.710;5.366;2023-06-26T12:34:13;3.17;;;1.63;;
69485;SDS011;56677;51.710;5.366;2023-06-26T12:36:45;4.07;;;1.65;;
69485;SDS011;56677;51.710;5.366;2023-06-26T12:39:10;3.93;;;1.77;;
69485;SDS011;56677;51.710;5.366;2023-06-26T12:41:36;3.88;;;1.70;;
69485;SDS011;56677;51.710;5.366;2023-06-26T12:44:15;5.50;;;1.52;;
69485;SDS011;56677;51.710;5.366;2023-06-26T12:46:41;4.57;;;1.93;;
69485;SDS011;56677;51.710;5.366;2023-06-26T12:49:06;2.83;;;1.20;;
69485;SDS011;56677;51.710;5.366;2023-06-26T12:51:31;3.63;;;1.58;;
69485;SDS011;56677;51.710;5.366;2023-06-26T12:53:56;4.67;;;1.40;;
69485;SDS011;56677;51.710;5.366;2023-06-26T12:56:21;3.30;;;1.10;;
69485;SDS011;56677;51.710;5.366;2023-06-26T12:58:46;2.70;;;1.30;;
69485;SDS011;56677;51.710;5.366;2023-06-26T13:01:12;3.22;;;1.20;;
69485;SDS011;56677;51.710;5.366;2023-06-26T13:03:37;3.20;;;1.77;;
69485;SDS011;56677;51.710;5.366;2023-06-26T13:06:02;4.30;;;1.40;;
69485;SDS011;56677;51.710;5.366;2023-06-26T13:08:27;3.57;;;1.17;;
69485;SDS011;56677;51.710;5.366;2023-06-26T13:10:52;3.58;;;1.80;;
69485;SDS011;56677;51.710;5.366;2023-06-26T13:13:17;3.25;;;1.25;;
69485;SDS011;56677;51.710;5.366;2023-06-26T13:15:42;2.42;;;1.38;;
69485;SDS011;56677;51.710;5.366;2023-06-26T13:18:08;2.88;;;1.10;;
69485;SDS011;56677;51.710;5.366;2023-06-26T13:20:33;3.10;;;1.10;;
69485;SDS011;56677;51.710;5.366;2023-06-26T13:22:58;4.35;;;1.30;;
69485;SDS011;56677;51.710;5.366;2023-06-26T13:25:23;4.23;;;1.43;;
69485;SDS011;56677;51.710;5.366;2023-06-26T13:27:48;6.43;;;1.40;;
69485;SDS011;56677;51.710;5.366;2023-06-26T13:30:14;4.13;;;1.30;;
69485;SDS011;56677;51.710;5.366;2023-06-26T13:32:39;3.77;;;0.90;;
69485;SDS011;56677;51.710;5.366;2023-06-26T13:35:04;4.83;;;1.30;;
69485;SDS011;56677;51.710;5.366;2023-06-26T13:37:29;5.03;;;1.60;;
69485;SDS011;56677;51.710;5.366;2023-06-26T13:39:54;2.63;;;1.20;;
69485;SDS011;56677;51.710;5.366;2023-06-26T13:42:20;3.05;;;1.50;;
69485;SDS011;56677;51.710;5.366;2023-06-26T13:44:46;2.72;;;1.33;;
69485;SDS011;56677;51.710;5.366;2023-06-26T13:47:12;5.78;;;1.52;;
69485;SDS011;56677;51.710;5.366;2023-06-26T13:49:38;2.95;;;1.10;;
69485;SDS011;56677;51.710;5.366;2023-06-26T13:52:03;7.93;;;1.50;;
69485;SDS011;56677;51.710;5.366;2023-06-26T13:54:29;4.80;;;1.43;;
69485;SDS011;56677;51.710;5.366;2023-06-26T13:56:54;2.33;;;0.93;;
69485;SDS011;56677;51.710;5.366;2023-06-26T13:59:19;4.82;;;1.25;;
69485;SDS011;56677;51.710;5.366;2023-06-26T14:01:44;3.87;;;1.30;;
69485;SDS011;56677;51.710;5.366;2023-06-26T14:04:09;3.43;;;1.60;;
69485;SDS011;56677;51.710;5.366;2023-06-26T14:06:34;4.57;;;1.10;;
69485;SDS011;56677;51.710;5.366;2023-06-26T14:09:00;3.67;;;1.30;;
69485;SDS011;56677;51.710;5.366;2023-06-26T14:11:25;2.88;;;1.25;;
69485;SDS011;56677;51.710;5.366;2023-06-26T14:13:50;5.50;;;1.10;;
69485;SDS011;56677;51.710;5.366;2023-06-26T14:16:15;3.10;;;1.33;;
69485;SDS011;56677;51.710;5.366;2023-06-26T14:18:40;3.45;;;1.38;;
69485;SDS011;56677;51.710;5.366;2023-06-26T14:21:06;5.18;;;1.88;;
69485;SDS011;56677;51.710;5.366;2023-06-26T14:23:31;4.33;;;1.30;;
69485;SDS011;56677;51.710;5.366;2023-06-26T14:25:56;3.67;;;1.10;;
69485;SDS011;56677;51.710;5.366;2023-06-26T14:28:21;7.10;;;1.20;;
69485;SDS011;56677;51.710;5.366;2023-06-26T14:30:46;3.47;;;1.50;;
69485;SDS011;56677;51.710;5.366;2023-06-26T14:33:11;3.23;;;1.27;;
69485;SDS011;56677;51.710;5.366;2023-06-26T14:35:36;4.47;;;1.20;;
69485;SDS011;56677;51.710;5.366;2023-06-26T14:38:02;2.80;;;1.43;;
69485;SDS011;56677;51.710;5.366;2023-06-26T14:40:27;3.60;;;1.08;;
69485;SDS011;56677;51.710;5.366;2023-06-26T14:42:52;3.53;;;1.63;;
69485;SDS011;56677;51.710;5.366;2023-06-26T14:45:17;4.43;;;1.60;;
69485;SDS011;56677;51.710;5.366;2023-06-26T14:47:42;4.47;;;1.23;;
69485;SDS011;56677;51.710;5.366;2023-06-26T14:50:07;5.67;;;1.37;;
69485;SDS011;56677;51.710;5.366;2023-06-26T14:52:33;4.03;;;1.30;;
69485;SDS011;56677;51.710;5.366;2023-06-26T14:54:58;3.83;;;1.40;;